Time;durP1;ratioP1;P1;durP2;ratioP2;P2;SDS_P1;SDS_P2;PMS_P1;PMS_P2;Temp;Humidity;BMP_temperature;BMP_pressure;BME280_temperature;BME280_humidity;BME280_pressure;Samples;Min_cycle;Max_cycle;Signal;HPM_P1;HPM_P2
2022/10/06 00:00:47;;;;;;;4.65;0.68;;;;;;;13.32;100.00;101935.16;4903755;29;20182;-75
2022/10/06 00:03:12;;;;;;;4.80;0.70;;;;;;;13.35;100.00;101941.84;4886700;29;20041;-74
2022/10/06 00:05:38;;;;;;;4.45;0.47;;;;;;;13.39;100.00;101945.78;4892964;29;20036;-75
2022/10/06 00:08:04;;;;;;;2.58;0.40;;;;;;;13.36;100.00;101941.69;4883984;29;20470;-74
2022/10/06 00:10:30;;;;;;;2.00;0.40;;;;;;;13.33;100.00;101952.41;4903298;29;20489;-74
2022/10/06 00:12:56;;;;;;;3.33;0.57;;;;;;;13.29;100.00;101958.03;4893955;29;20091;-74
2022/10/06 00:15:26;;;;;;;1.77;0.60;;;;;;;13.32;100.00;101963.81;4906934;29;20127;-74
2022/10/06 00:17:51;;;;;;;2.47;0.47;;;;;;;13.28;100.00;101972.00;4896924;29;20067;-74
2022/10/06 00:20:18;;;;;;;3.80;0.60;;;;;;;13.19;100.00;101978.94;4889809;29;20036;-74
2022/10/06 00:22:46;;;;;;;1.83;0.50;;;;;;;13.17;100.00;101980.84;4891335;29;20036;-75
2022/10/06 00:25:14;;;;;;;2.25;0.57;;;;;;;13.14;100.00;101974.13;4896359;29;20043;-74
2022/10/06 00:27:42;;;;;;;3.17;0.50;;;;;;;13.13;100.00;101985.53;4906707;29;20441;-74
2022/10/06 00:30:11;;;;;;;3.42;0.98;;;;;;;13.12;100.00;101976.06;4909188;29;20111;-74
2022/10/06 00:32:38;;;;;;;3.38;0.70;;;;;;;13.15;100.00;102001.00;4899930;29;20036;-74
2022/10/06 00:35:05;;;;;;;4.43;1.35;;;;;;;13.16;100.00;102000.03;4897268;29;20133;-74
2022/10/06 00:37:34;;;;;;;5.00;1.13;;;;;;;13.17;100.00;102004.28;4888002;29;20044;-74
2022/10/06 00:40:00;;;;;;;1.70;0.32;;;;;;;13.15;100.00;102012.25;4906714;29;20446;-74
2022/10/06 00:42:31;;;;;;;2.15;0.60;;;;;;;13.15;100.00;102006.22;4894964;29;20032;-74
2022/10/06 00:45:04;;;;;;;3.60;0.60;;;;;;;13.13;100.00;102013.31;4915336;29;20036;-74
2022/10/06 00:47:32;;;;;;;3.05;0.80;;;;;;;13.12;100.00;102015.13;4906516;29;20080;-74
2022/10/06 00:49:59;;;;;;;2.45;0.75;;;;;;;13.13;100.00;102026.34;4890801;29;20032;-74
2022/10/06 00:52:29;;;;;;;2.20;1.13;;;;;;;13.08;100.00;102026.78;4888582;29;20714;-74
2022/10/06 00:54:57;;;;;;;3.13;0.90;;;;;;;13.02;100.00;102029.97;4890755;29;20028;-74
2022/10/06 00:57:24;;;;;;;3.35;0.70;;;;;;;12.95;100.00;102027.09;4871773;29;20063;-74
2022/10/06 00:59:50;;;;;;;3.47;0.75;;;;;;;12.94;100.00;102033.28;4903612;29;20433;-74
2022/10/06 01:02:25;;;;;;;2.85;0.68;;;;;;;12.94;100.00;102037.66;4889475;29;20035;-73
2022/10/06 01:04:55;;;;;;;2.75;0.60;;;;;;;12.94;100.00;102030.69;4905211;29;20070;-73
2022/10/06 01:07:25;;;;;;;1.00;0.65;;;;;;;12.95;100.00;102044.50;4888400;29;20028;-74
2022/10/06 01:09:50;;;;;;;2.97;0.82;;;;;;;12.95;100.00;102047.94;4901866;29;20039;-74
2022/10/06 01:12:16;;;;;;;2.70;0.75;;;;;;;12.92;100.00;102053.44;4881756;29;20040;-74
2022/10/06 01:14:42;;;;;;;7.95;1.92;;;;;;;12.89;100.00;102058.91;4902881;29;20100;-73
2022/10/06 01:17:28;;;;;;;4.53;0.93;;;;;;;12.88;100.00;102062.47;4891186;29;20447;-73
2022/10/06 01:20:01;;;;;;;5.57;1.00;;;;;;;12.89;100.00;102058.09;4888526;29;20035;-74
2022/10/06 01:22:34;;;;;;;2.38;0.82;;;;;;;12.88;100.00;102065.06;4908006;29;20092;-74
2022/10/06 01:25:02;;;;;;;1.58;0.80;;;;;;;12.85;100.00;102067.97;4870973;29;20127;-74
2022/10/06 01:27:30;;;;;;;3.10;0.68;;;;;;;12.85;100.00;102074.00;4895183;29;20044;-74
2022/10/06 01:29:56;;;;;;;4.82;1.30;;;;;;;12.87;100.00;102073.03;4894420;29;20080;-75
2022/10/06 01:32:24;;;;;;;7.28;1.00;;;;;;;12.80;100.00;102084.00;4906166;29;20039;-74
2022/10/06 01:34:49;;;;;;;8.82;2.45;;;;;;;12.79;100.00;102082.38;4906674;29;20028;-74
2022/10/06 01:37:15;;;;;;;5.72;1.48;;;;;;;12.77;100.00;102078.22;4890067;29;20465;-74
2022/10/06 01:39:42;;;;;;;6.30;1.27;;;;;;;12.74;100.00;102078.53;4889649;29;20103;-74
2022/10/06 01:42:08;;;;;;;5.22;0.80;;;;;;;12.72;100.00;102077.84;4889275;29;20545;-74
2022/10/06 01:44:33;;;;;;;5.55;0.90;;;;;;;12.68;100.00;102090.31;4876645;29;20152;-74
2022/10/06 01:46:59;;;;;;;4.63;0.80;;;;;;;12.68;100.00;102092.06;4893880;29;20032;-74
2022/10/06 01:49:25;;;;;;;5.55;1.27;;;;;;;12.67;100.00;102080.84;4892799;29;20114;-74
2022/10/06 01:51:51;;;;;;;4.45;1.10;;;;;;;12.68;100.00;102087.72;4910676;29;20032;-74
2022/10/06 01:54:16;;;;;;;5.60;1.20;;;;;;;12.66;100.00;102090.44;4877010;29;20032;-74
2022/10/06 01:56:55;;;;;;;3.08;0.98;;;;;;;12.67;100.00;102099.06;4889893;29;20039;-74
2022/10/06 01:59:22;;;;;;;5.50;0.88;;;;;;;12.66;100.00;102098.25;4901435;29;20489;-75
2022/10/06 02:01:47;;;;;;;6.80;1.30;;;;;;;12.64;100.00;102105.38;4904322;29;20033;-73
2022/10/06 02:04:13;;;;;;;5.38;1.08;;;;;;;12.59;100.00;102110.16;4887924;29;20828;-74
2022/10/06 02:06:38;;;;;;;2.80;1.00;;;;;;;12.56;100.00;102115.63;4880740;29;20441;-74
2022/10/06 02:09:04;;;;;;;6.10;1.20;;;;;;;12.57;100.00;102112.09;4883868;29;20517;-74
2022/10/06 02:11:29;;;;;;;6.38;1.45;;;;;;;12.52;100.00;102109.06;4898985;29;20124;-73
2022/10/06 02:13:55;;;;;;;4.20;1.00;;;;;;;12.49;100.00;102113.72;4901911;29;20389;-73
2022/10/06 02:16:20;;;;;;;7.18;1.15;;;;;;;12.45;100.00;102124.41;4891409;29;20028;-73
2022/10/06 02:18:46;;;;;;;3.47;1.10;;;;;;;12.43;100.00;102126.34;4881618;29;20633;-73
2022/10/06 02:21:20;;;;;;;5.47;1.00;;;;;;;12.40;100.00;102128.38;4907865;29;20043;-74
2022/10/06 02:23:46;;;;;;;5.47;1.10;;;;;;;12.34;100.00;102136.72;4891324;29;20132;-73
2022/10/06 02:26:14;;;;;;;8.43;1.73;;;;;;;12.31;100.00;102143.00;4892731;29;20107;-73
2022/10/06 02:28:40;;;;;;;4.80;1.02;;;;;;;12.21;100.00;102137.81;4883835;29;20055;-75
2022/10/06 02:31:08;;;;;;;5.47;1.00;;;;;;;12.13;100.00;102147.22;4891200;29;20047;-75
2022/10/06 02:33:37;;;;;;;13.40;1.98;;;;;;;12.12;100.00;102146.41;4890815;29;20032;-75
2022/10/06 02:36:05;;;;;;;17.00;1.75;;;;;;;12.07;100.00;102158.97;4912306;29;20581;-75
2022/10/06 02:38:31;;;;;;;7.20;1.30;;;;;;;12.07;100.00;102156.38;4887293;29;20056;-75
2022/10/06 02:40:58;;;;;;;5.60;1.00;;;;;;;12.08;100.00;102160.63;4878956;29;20027;-75
2022/10/06 02:43:30;;;;;;;6.32;2.03;;;;;;;12.09;100.00;102170.06;4890537;29;20128;-74
2022/10/06 02:46:06;;;;;;;8.15;1.00;;;;;;;12.11;100.00;102170.78;4868590;29;20036;-74
2022/10/06 02:48:33;;;;;;;6.55;1.05;;;;;;;12.10;100.00;102176.09;4877202;29;20501;-75
2022/10/06 02:51:08;;;;;;;6.82;1.25;;;;;;;12.10;100.00;102173.50;4872366;29;20127;-75
2022/10/06 02:53:35;;;;;;;6.38;1.08;;;;;;;11.99;100.00;102182.22;4890624;29;20135;-75
2022/10/06 02:56:09;;;;;;;4.78;0.98;;;;;;;11.95;100.00;102186.03;4876166;29;20514;-75
2022/10/06 02:58:35;;;;;;;8.60;1.00;;;;;;;11.91;100.00;102185.47;4897294;29;21023;-74
2022/10/06 03:01:09;;;;;;;8.52;0.98;;;;;;;11.91;100.00;102184.66;4879267;29;20055;-76
2022/10/06 03:03:35;;;;;;;6.18;1.10;;;;;;;11.91;100.00;102182.88;4894981;29;20072;-74
2022/10/06 03:06:05;;;;;;;4.63;1.13;;;;;;;11.90;100.00;102188.19;4885735;29;20110;-74
2022/10/06 03:08:32;;;;;;;7.05;1.08;;;;;;;11.87;100.00;102191.84;4889357;29;20128;-74
2022/10/06 03:11:02;;;;;;;11.77;1.67;;;;;;;11.78;100.00;102203.84;4894823;29;20491;-74
2022/10/06 03:13:29;;;;;;;10.95;1.35;;;;;;;11.74;100.00;102205.06;4895798;29;20040;-74
2022/10/06 03:15:56;;;;;;;6.07;1.02;;;;;;;11.67;100.00;102207.34;4900989;29;20450;-75
2022/10/06 03:18:22;;;;;;;9.32;1.02;;;;;;;11.65;100.00;102218.81;4890987;29;20530;-74
2022/10/06 03:20:48;;;;;;;7.38;1.05;;;;;;;11.62;100.00;102225.09;4888764;29;20042;-75
2022/10/06 03:23:13;;;;;;;8.20;1.05;;;;;;;11.61;100.00;102227.84;4896566;29;20445;-75
2022/10/06 03:25:39;;;;;;;10.10;0.90;;;;;;;11.59;100.00;102229.72;4892872;29;20458;-75
2022/10/06 03:28:05;;;;;;;4.75;1.35;;;;;;;11.55;100.00;102236.13;4878900;29;20035;-75
2022/10/06 03:30:31;;;;;;;5.97;1.42;;;;;;;11.50;100.00;102234.72;4894047;29;20500;-75
2022/10/06 03:32:58;;;;;;;9.55;1.20;;;;;;;11.46;100.00;102241.13;4872706;29;20032;-74
2022/10/06 03:35:24;;;;;;;7.70;1.08;;;;;;;11.54;100.00;102240.50;4894184;29;20032;-76
2022/10/06 03:37:50;;;;;;;16.30;1.98;;;;;;;11.45;100.00;102247.28;4889388;29;20515;-75
2022/10/06 03:40:15;;;;;;;7.90;1.20;;;;;;;11.47;100.00;102257.53;4892959;29;20032;-73
2022/10/06 03:42:41;;;;;;;8.05;1.15;;;;;;;11.37;100.00;102267.03;4888040;29;20107;-74
2022/10/06 03:45:07;;;;;;;11.73;1.63;;;;;;;11.40;100.00;102274.59;4894687;29;20043;-75
2022/10/06 03:47:32;;;;;;;8.80;2.17;;;;;;;11.32;100.00;102275.22;4895454;29;20028;-74
2022/10/06 03:49:58;;;;;;;9.30;1.48;;;;;;;11.26;100.00;102273.94;4895004;29;20051;-75
2022/10/06 03:52:24;;;;;;;14.45;1.85;;;;;;;11.21;100.00;102267.47;4891345;29;20039;-75
2022/10/06 03:54:49;;;;;;;9.35;1.25;;;;;;;11.22;100.00;102280.31;4905336;29;20037;-75
2022/10/06 03:57:15;;;;;;;9.40;1.08;;;;;;;11.16;100.00;102290.38;4878330;29;20036;-74
2022/10/06 03:59:40;;;;;;;10.00;1.25;;;;;;;11.13;100.00;102290.63;4875037;29;20095;-74
2022/10/06 04:02:07;;;;;;;13.88;1.63;;;;;;;11.24;100.00;102295.78;4888768;29;20446;-74
2022/10/06 04:04:36;;;;;;;7.40;1.67;;;;;;;11.14;99.89;102300.06;4880631;29;20425;-73
2022/10/06 04:07:06;;;;;;;17.38;1.73;;;;;;;11.17;100.00;102295.47;4874252;29;20033;-75
2022/10/06 04:09:31;;;;;;;8.70;1.10;;;;;;;11.12;100.00;102309.75;4894173;29;20083;-74
2022/10/06 04:11:58;;;;;;;11.13;1.65;;;;;;;11.03;100.00;102313.91;4893210;29;20390;-75
2022/10/06 04:14:24;;;;;;;6.75;2.38;;;;;;;10.96;100.00;102316.13;4881587;29;20043;-75
2022/10/06 04:16:50;;;;;;;13.65;1.45;;;;;;;10.94;100.00;102323.22;4890374;29;20446;-73
2022/10/06 04:19:27;;;;;;;6.13;1.40;;;;;;;10.95;100.00;102324.88;4879752;29;20050;-74
2022/10/06 04:21:54;;;;;;;7.38;1.00;;;;;;;10.89;100.00;102330.56;4877188;29;20493;-74
2022/10/06 04:24:22;;;;;;;9.45;1.35;;;;;;;10.86;100.00;102331.63;4874396;29;20390;-75
2022/10/06 04:26:48;;;;;;;8.05;1.52;;;;;;;10.84;100.00;102340.47;4886244;29;20075;-75
2022/10/06 04:29:15;;;;;;;8.93;1.20;;;;;;;10.80;99.71;102337.28;4888982;29;20076;-74
2022/10/06 04:31:43;;;;;;;17.20;1.60;;;;;;;10.80;99.40;102341.66;4890788;29;20055;-75
2022/10/06 04:34:15;;;;;;;11.25;1.30;;;;;;;10.82;99.39;102335.41;4887478;29;20040;-75
2022/10/06 04:36:42;;;;;;;9.88;1.52;;;;;;;10.81;98.90;102341.56;4890108;29;20037;-75
2022/10/06 04:39:12;;;;;;;12.80;1.73;;;;;;;10.84;98.54;102336.09;4895372;29;20053;-73
2022/10/06 04:41:46;;;;;;;14.45;1.33;;;;;;;10.71;98.65;102346.59;4889844;29;20035;-75
2022/10/06 04:44:13;;;;;;;11.68;1.65;;;;;;;10.79;98.67;102351.19;4899655;29;20039;-73
2022/10/06 04:46:39;;;;;;;9.93;1.55;;;;;;;10.62;98.85;102354.28;4877475;29;20416;-75
2022/10/06 04:49:06;;;;;;;14.38;2.75;;;;;;;10.58;99.34;102358.88;4874347;29;20072;-75
2022/10/06 04:51:34;;;;;;;11.07;1.30;;;;;;;10.56;99.15;102363.38;4892318;29;20037;-75
2022/10/06 04:54:02;;;;;;;15.60;2.20;;;;;;;10.52;99.38;102364.53;4892668;29;20031;-74
2022/10/06 04:56:30;;;;;;;17.85;2.55;;;;;;;10.52;98.75;102362.78;4895067;29;20058;-75
2022/10/06 04:58:59;;;;;;;9.88;1.60;;;;;;;10.49;99.18;102370.81;4891703;29;20055;-75
2022/10/06 05:01:27;;;;;;;11.45;1.30;;;;;;;10.42;99.43;102380.00;4887190;29;20032;-76
2022/10/06 05:03:56;;;;;;;14.38;1.77;;;;;;;10.47;99.00;102382.22;4904941;29;20041;-74
2022/10/06 05:06:28;;;;;;;11.77;1.75;;;;;;;10.41;98.83;102383.50;4885377;29;20108;-75
2022/10/06 05:08:58;;;;;;;12.43;1.90;;;;;;;10.39;98.97;102389.75;4902957;29;20028;-75
2022/10/06 05:11:24;;;;;;;12.15;1.88;;;;;;;10.44;98.63;102382.47;4894128;29;20472;-74
2022/10/06 05:13:53;;;;;;;10.07;1.38;;;;;;;10.35;98.98;102389.16;4885975;29;20033;-74
2022/10/06 05:16:20;;;;;;;9.90;1.50;;;;;;;10.34;98.71;102390.13;4904238;29;20042;-73
2022/10/06 05:18:46;;;;;;;10.18;2.00;;;;;;;10.28;99.18;102400.91;4885202;29;20032;-73
2022/10/06 05:21:15;;;;;;;14.95;1.60;;;;;;;10.32;99.49;102405.78;4901339;29;20043;-75
2022/10/06 05:23:42;;;;;;;15.63;1.98;;;;;;;10.27;98.74;102422.59;4880161;29;20024;-73
2022/10/06 05:26:10;;;;;;;9.15;1.88;;;;;;;10.25;98.92;102421.91;4888310;29;20087;-74
2022/10/06 05:28:36;;;;;;;10.20;2.08;;;;;;;10.22;99.30;102424.69;4901602;29;20028;-73
2022/10/06 05:31:11;;;;;;;9.50;1.38;;;;;;;10.16;99.54;102419.97;4904151;29;20044;-74
2022/10/06 05:33:37;;;;;;;22.98;1.55;;;;;;;10.14;99.49;102427.88;4875375;29;20675;-74
2022/10/06 05:36:05;;;;;;;16.92;1.60;;;;;;;10.12;98.81;102430.56;4907338;29;20037;-73
2022/10/06 05:38:32;;;;;;;17.00;1.98;;;;;;;10.14;99.36;102436.47;4873038;29;20036;-73
2022/10/06 05:41:18;;;;;;;11.63;1.30;;;;;;;10.11;99.38;102443.63;4877770;29;20116;-73
2022/10/06 05:43:44;;;;;;;8.70;1.92;;;;;;;10.09;98.71;102448.09;4876004;29;20041;-74
2022/10/06 05:46:18;;;;;;;12.40;1.45;;;;;;;10.10;98.60;102448.00;4889475;29;20039;-75
2022/10/06 05:48:56;;;;;;;14.43;2.30;;;;;;;10.11;98.63;102462.63;4876196;29;20033;-75
2022/10/06 05:51:26;;;;;;;14.35;2.17;;;;;;;10.02;99.02;102457.25;4870943;29;20060;-74
2022/10/06 05:53:52;;;;;;;11.23;2.17;;;;;;;9.98;99.34;102461.03;4880262;29;20392;-75
2022/10/06 05:56:20;;;;;;;13.55;1.77;;;;;;;10.00;98.94;102467.75;4886197;29;20044;-74
2022/10/06 05:58:49;;;;;;;14.18;1.90;;;;;;;10.08;98.83;102467.22;4891284;29;20032;-74
2022/10/06 06:01:22;;;;;;;16.42;1.90;;;;;;;10.06;98.53;102476.84;4902352;29;20060;-74
2022/10/06 06:04:00;;;;;;;12.10;1.57;;;;;;;10.02;99.02;102478.84;4889150;29;20122;-75
2022/10/06 06:06:32;;;;;;;17.63;2.25;;;;;;;10.05;98.45;102485.56;4874212;29;20077;-74
2022/10/06 06:09:26;;;;;;;10.00;1.83;;;;;;;10.02;98.47;102484.03;4902903;29;20036;-74
2022/10/06 06:11:54;;;;;;;7.78;1.33;;;;;;;10.01;98.39;102489.31;4889682;29;20402;-74
2022/10/06 06:17:11;;;;;;;14.25;1.55;;;;;;;9.99;98.93;102489.41;4900549;29;20036;-73
2022/10/06 06:19:37;;;;;;;18.90;2.42;;;;;;;10.01;98.88;102491.91;4885600;29;20394;-75
2022/10/06 06:22:04;;;;;;;11.43;2.28;;;;;;;10.05;98.58;102498.53;4875807;29;20036;-74
2022/10/06 06:24:31;;;;;;;13.95;1.90;;;;;;;10.10;97.74;102507.63;4908499;29;20111;-74
2022/10/06 06:26:57;;;;;;;11.55;1.63;;;;;;;10.05;98.09;102501.09;4875100;29;20108;-73
2022/10/06 06:29:22;;;;;;;18.63;2.40;;;;;;;10.05;97.96;102508.88;4894117;29;20036;-74
2022/10/06 06:31:49;;;;;;;11.60;1.77;;;;;;;10.10;98.10;102514.56;4888952;29;20048;-73
2022/10/06 06:34:15;;;;;;;12.93;1.85;;;;;;;10.16;97.42;102510.72;4875579;29;20336;-72
2022/10/06 06:36:44;;;;;;;20.15;2.55;;;;;;;10.18;97.53;102519.19;4888813;29;20032;-73
2022/10/06 06:39:14;;;;;;;21.45;1.90;;;;;;;10.19;97.08;102519.09;4899369;29;20044;-75
2022/10/06 06:41:45;;;;;;;15.30;2.40;;;;;;;10.20;97.52;102512.13;4892144;29;20139;-75
2022/10/06 06:44:19;;;;;;;22.70;2.45;;;;;;;10.41;96.94;102522.72;4878181;29;20128;-76
2022/10/06 06:47:00;;;;;;;9.68;1.42;;;;;;;10.79;95.01;102527.66;4902312;29;20036;-74
2022/10/06 06:49:26;;;;;;;24.35;6.32;;;;;;;11.16;94.06;102526.63;4873257;29;20043;-73
2022/10/06 06:51:56;;;;;;;16.77;2.97;;;;;;;11.54;90.43;102530.63;4891434;29;20040;-72
2022/10/06 06:54:23;;;;;;;14.48;1.83;;;;;;;11.82;87.00;102535.28;4895383;29;20047;-73
2022/10/06 06:56:55;;;;;;;12.02;1.67;;;;;;;12.36;84.77;102541.41;4895407;29;20035;-74
2022/10/06 06:59:21;;;;;;;16.10;2.28;;;;;;;12.76;82.42;102532.09;4894482;29;20043;-71
2022/10/06 07:01:49;;;;;;;15.60;1.58;;;;;;;13.13;79.96;102539.38;4904919;29;20343;-74
2022/10/06 07:04:20;;;;;;;14.48;1.70;;;;;;;13.56;78.30;102541.78;4882825;29;20084;-72
2022/10/06 07:06:52;;;;;;;22.20;3.40;;;;;;;13.79;77.61;102545.00;4904000;29;20028;-72
2022/10/06 07:09:17;;;;;;;13.82;2.17;;;;;;;13.96;75.59;102550.50;4889094;29;20140;-74
2022/10/06 07:11:43;;;;;;;10.50;1.40;;;;;;;14.17;75.66;102558.22;4892290;29;20374;-72
2022/10/06 07:14:14;;;;;;;20.98;1.98;;;;;;;14.59;73.29;102561.34;4889073;29;20033;-72
2022/10/06 07:25:10;;;;;;;18.10;1.85;;;;;;;15.43;68.66;102588.47;4888343;29;20379;-74
2022/10/06 07:27:46;;;;;;;16.60;1.38;;;;;;;15.70;68.55;102590.25;4909359;29;20527;-73
2022/10/06 07:30:22;;;;;;;14.07;2.17;;;;;;;16.06;68.08;102597.38;4895792;29;20059;-72
2022/10/06 07:32:53;;;;;;;15.50;1.83;;;;;;;16.19;65.95;102597.00;4889832;29;20040;-72
2022/10/06 07:35:21;;;;;;;12.50;1.75;;;;;;;16.22;65.94;102597.53;4876509;29;20386;-72
2022/10/06 07:37:51;;;;;;;13.27;2.53;;;;;;;16.29;65.67;102600.34;4883603;29;20039;-73
2022/10/06 07:40:17;;;;;;;19.45;2.80;;;;;;;16.30;64.71;102612.47;4893702;29;20038;-73
2022/10/06 07:42:52;;;;;;;16.42;2.13;;;;;;;16.39;65.30;102619.44;4893391;29;20424;-73
2022/10/06 07:45:37;;;;;;;12.00;1.70;;;;;;;16.41;64.76;102617.50;4895736;29;20081;-73
2022/10/06 07:48:05;;;;;;;14.73;2.27;;;;;;;16.68;64.72;102621.78;4907949;29;20036;-72
2022/10/06 07:50:32;;;;;;;21.10;2.45;;;;;;;16.80;64.64;102614.53;4890659;29;20569;-72
2022/10/06 07:53:00;;;;;;;11.27;2.38;;;;;;;16.89;63.18;102625.91;4906581;29;20036;-76
2022/10/06 07:55:26;;;;;;;11.52;2.63;;;;;;;17.19;62.34;102627.22;4879274;29;20032;-72
2022/10/06 07:58:09;;;;;;;8.88;2.15;;;;;;;17.50;62.10;102630.16;4892033;29;20036;-72
2022/10/06 08:00:34;;;;;;;16.58;1.65;;;;;;;17.53;61.94;102634.28;4893910;29;20131;-72
2022/10/06 08:03:00;;;;;;;19.75;3.25;;;;;;;17.55;61.17;102640.19;4887744;29;20044;-73
2022/10/06 08:05:25;;;;;;;16.52;2.03;;;;;;;17.71;60.64;102642.06;4893286;29;20032;-72
2022/10/06 08:07:52;;;;;;;12.23;2.30;;;;;;;17.66;59.60;102629.41;4906065;29;20464;-72
2022/10/06 08:10:19;;;;;;;19.60;3.53;;;;;;;17.93;59.05;102634.59;4906568;29;20564;-72
2022/10/06 08:12:45;;;;;;;22.55;2.58;;;;;;;18.11;59.06;102640.56;4907629;29;20039;-73
2022/10/06 08:15:12;;;;;;;18.15;2.72;;;;;;;18.24;59.23;102640.91;4907037;29;20062;-73
2022/10/06 08:17:38;;;;;;;19.65;3.40;;;;;;;18.34;59.07;102645.19;4890159;29;20043;-72
2022/10/06 08:20:06;;;;;;;12.88;2.42;;;;;;;18.41;59.56;102644.34;4904111;29;20048;-73
2022/10/06 08:22:32;;;;;;;15.68;2.80;;;;;;;18.39;57.89;102648.13;4893968;29;20144;-74
2022/10/06 08:24:58;;;;;;;14.43;1.58;;;;;;;18.53;57.98;102650.09;4892312;29;20131;-73
2022/10/06 08:27:27;;;;;;;16.42;2.63;;;;;;;18.74;56.56;102649.63;4903340;29;20028;-73
2022/10/06 08:29:53;;;;;;;15.95;2.80;;;;;;;18.86;57.09;102658.00;4909652;29;20115;-73
2022/10/06 08:32:20;;;;;;;11.63;1.63;;;;;;;19.09;55.49;102650.25;4894251;29;20044;-73
2022/10/06 08:34:46;;;;;;;16.17;1.83;;;;;;;19.18;56.28;102657.13;4906938;29;20039;-73
2022/10/06 08:37:12;;;;;;;13.70;2.80;;;;;;;18.85;56.75;102659.00;4892569;29;20047;-74
2022/10/06 08:39:40;;;;;;;9.52;1.80;;;;;;;18.87;57.33;102662.28;4905354;29;20036;-74
2022/10/06 08:42:11;;;;;;;12.63;2.45;;;;;;;18.63;59.00;102665.72;4899062;29;20126;-74
2022/10/06 08:44:43;;;;;;;14.55;2.17;;;;;;;19.11;56.28;102660.59;4908621;29;20396;-73
2022/10/06 08:47:17;;;;;;;15.40;2.28;;;;;;;18.98;56.54;102663.75;4911275;29;20127;-76
2022/10/06 08:49:47;;;;;;;9.77;1.98;;;;;;;18.92;56.31;102657.34;4905977;29;20059;-73
2022/10/06 08:52:34;;;;;;;13.80;1.92;;;;;;;19.12;56.49;102668.31;4914657;29;20044;-73
2022/10/06 08:55:18;;;;;;;13.32;1.80;;;;;;;18.76;55.46;102663.41;4900719;29;20075;-74
2022/10/06 08:57:57;;;;;;;14.82;1.88;;;;;;;18.68;58.54;102671.28;4899531;29;20410;-74
2022/10/06 09:00:23;;;;;;;19.77;2.28;;;;;;;18.60;59.07;102684.44;4890905;29;20036;-73
2022/10/06 09:02:49;;;;;;;10.07;1.88;;;;;;;18.71;59.09;102691.97;4911382;29;20039;-73
2022/10/06 09:05:23;;;;;;;15.10;1.90;;;;;;;18.58;59.01;102681.97;4907681;29;20099;-73
2022/10/06 09:08:23;;;;;;;8.38;2.10;;;;;;;18.48;59.64;102691.81;4903926;29;20036;-73
2022/10/06 09:11:03;;;;;;;13.07;2.70;;;;;;;18.26;59.79;102695.88;4888221;29;20043;-74
2022/10/06 09:13:32;;;;;;;13.25;2.28;;;;;;;18.05;59.75;102704.19;4875655;29;20036;-73
2022/10/06 09:16:12;;;;;;;12.73;1.80;;;;;;;18.02;62.06;102699.25;4912734;29;20481;-73
2022/10/06 09:18:59;;;;;;;16.50;1.52;;;;;;;17.93;62.27;102708.06;4902281;29;20466;-73
2022/10/06 09:21:48;;;;;;;15.63;2.08;;;;;;;17.78;60.93;102715.69;4899615;29;20059;-74
2022/10/06 09:24:16;;;;;;;14.55;3.38;;;;;;;17.56;61.63;102715.28;4889559;29;20052;-74
2022/10/06 09:26:44;;;;;;;16.90;2.10;;;;;;;17.56;61.04;102722.31;4907034;29;20488;-77
2022/10/06 09:29:10;;;;;;;11.52;2.00;;;;;;;17.49;62.70;102716.88;4891618;29;20092;-74
2022/10/06 09:31:39;;;;;;;15.27;2.45;;;;;;;17.44;61.56;102729.59;4909820;29;20393;-74
2022/10/06 09:34:07;;;;;;;14.93;1.83;;;;;;;17.23;61.73;102728.16;4890649;29;20044;-78
2022/10/06 09:36:58;;;;;;;13.13;2.85;;;;;;;16.99;63.01;102734.06;4913125;29;20521;-74
2022/10/06 09:39:25;;;;;;;13.15;2.53;;;;;;;16.99;63.83;102738.47;4909895;29;20060;-73
2022/10/06 09:41:53;;;;;;;14.25;2.10;;;;;;;16.95;62.72;102742.38;4880486;29;20050;-75
2022/10/06 09:44:32;;;;;;;10.70;2.13;;;;;;;16.89;63.49;102749.03;4890342;29;20049;-73
2022/10/06 09:46:58;;;;;;;9.65;1.70;;;;;;;16.85;62.20;102735.41;4895331;29;20047;-78
2022/10/06 09:49:25;;;;;;;15.57;2.10;;;;;;;17.03;62.64;102745.06;4885594;29;20117;-75
2022/10/06 09:52:01;;;;;;;11.57;1.80;;;;;;;17.04;61.91;102734.41;4872726;29;20040;-74
2022/10/06 09:54:27;;;;;;;11.57;2.28;;;;;;;16.83;61.60;102739.97;4901107;29;20036;-74
2022/10/06 09:56:54;;;;;;;7.43;1.25;;;;;;;16.75;62.37;102750.38;4875006;29;20040;-73
2022/10/06 09:59:24;;;;;;;10.70;1.90;;;;;;;16.74;61.18;102748.69;4876195;29;20115;-73
2022/10/06 10:01:54;;;;;;;10.38;1.90;;;;;;;16.63;62.82;102741.91;4886573;29;20737;-73
2022/10/06 10:04:26;;;;;;;11.45;2.10;;;;;;;16.79;62.08;102745.66;4906870;29;20044;-72
2022/10/06 10:06:52;;;;;;;14.63;2.75;;;;;;;16.60;60.61;102747.44;4892437;29;20032;-75
2022/10/06 10:09:28;;;;;;;13.85;1.95;;;;;;;16.73;59.94;102749.69;4904796;29;20048;-76
2022/10/06 10:12:26;;;;;;;15.88;1.50;;;;;;;16.71;60.84;102746.41;4899191;29;20044;-74
2022/10/06 10:15:10;;;;;;;8.98;1.17;;;;;;;16.68;59.35;102747.50;4885950;29;20899;-74
2022/10/06 10:17:41;;;;;;;7.78;1.27;;;;;;;16.58;59.27;102746.75;4888430;29;20040;-74
2022/10/06 10:20:21;;;;;;;10.90;1.40;;;;;;;16.38;60.02;102753.09;4876462;29;20086;-74
2022/10/06 10:22:47;;;;;;;13.40;1.30;;;;;;;16.57;61.00;102747.72;4880288;29;20095;-73
2022/10/06 10:25:28;;;;;;;10.30;1.50;;;;;;;16.52;60.80;102742.94;4871115;29;20044;-75
2022/10/06 10:28:06;;;;;;;13.20;2.90;;;;;;;16.63;59.41;102746.31;4916253;29;20042;-74
2022/10/06 10:30:44;;;;;;;9.77;2.15;;;;;;;16.62;59.82;102752.53;4894476;29;20040;-74
2022/10/06 10:33:31;;;;;;;9.00;1.60;;;;;;;16.70;57.29;102747.34;4904409;29;20036;-74
2022/10/06 10:35:58;;;;;;;6.03;1.10;;;;;;;16.59;59.22;102745.78;4906038;29;20389;-75
2022/10/06 10:38:25;;;;;;;9.80;1.95;;;;;;;16.61;59.11;102746.44;4890028;29;20079;-74
2022/10/06 10:40:57;;;;;;;7.43;1.55;;;;;;;16.75;59.15;102752.97;4901979;29;20099;-73
2022/10/06 10:43:51;;;;;;;8.40;1.23;;;;;;;16.96;58.75;102754.50;4900468;29;20068;-74
2022/10/06 10:46:33;;;;;;;15.55;1.92;;;;;;;16.81;57.15;102743.69;4900130;29;20040;-77
2022/10/06 10:49:30;;;;;;;6.10;1.67;;;;;;;16.91;57.30;102745.31;4902590;29;20463;-74
2022/10/06 10:52:07;;;;;;;11.57;1.55;;;;;;;16.97;56.22;102753.53;4890708;29;20044;-75
2022/10/06 10:54:43;;;;;;;8.50;1.10;;;;;;;16.89;56.28;102749.84;4878711;29;20051;-74
2022/10/06 10:57:15;;;;;;;8.13;1.25;;;;;;;16.58;56.28;102743.34;4902310;29;20041;-73
2022/10/06 10:59:46;;;;;;;5.00;1.52;;;;;;;16.66;58.08;102751.25;4903158;29;21043;-76
2022/10/06 11:02:18;;;;;;;7.07;1.63;;;;;;;16.91;55.92;102754.94;4907157;29;20478;-78
2022/10/06 11:04:48;;;;;;;6.63;1.20;;;;;;;16.93;55.68;102748.59;4870014;29;20091;-74
2022/10/06 11:07:29;;;;;;;10.85;1.50;;;;;;;17.00;56.59;102745.38;4898974;29;20472;-74
2022/10/06 11:09:58;;;;;;;9.88;1.70;;;;;;;17.22;56.45;102749.31;4892754;29;20028;-75
2022/10/06 11:12:40;;;;;;;6.15;1.73;;;;;;;17.01;56.09;102749.63;4870618;29;20051;-75
2022/10/06 11:15:30;;;;;;;7.57;1.77;;;;;;;17.19;55.70;102749.59;4901192;29;20568;-77
2022/10/06 11:18:21;;;;;;;8.52;1.40;;;;;;;16.99;55.30;102749.78;4865583;29;20103;-78
2022/10/06 11:21:10;;;;;;;13.23;1.20;;;;;;;16.85;55.08;102752.94;4893967;29;20046;-75
2022/10/06 11:23:42;;;;;;;14.50;1.58;;;;;;;17.02;55.16;102751.28;4900753;29;20041;-74
2022/10/06 11:26:34;;;;;;;8.75;1.25;;;;;;;16.99;55.59;102748.94;4906570;29;20048;-74
2022/10/06 11:29:08;;;;;;;8.35;1.10;;;;;;;17.01;54.79;102754.84;4889256;29;20037;-75
2022/10/06 11:31:39;;;;;;;5.60;1.52;;;;;;;16.83;55.66;102755.69;4888571;29;20040;-74
2022/10/06 11:34:05;;;;;;;10.38;1.25;;;;;;;17.13;56.68;102758.91;4876327;29;20043;-74
2022/10/06 11:36:53;;;;;;;2.92;0.80;;;;;;;17.27;54.60;102758.38;4892796;29;20042;-74
2022/10/06 11:39:50;;;;;;;7.10;1.25;;;;;;;17.26;53.72;102748.84;4880173;29;20044;-76
2022/10/06 11:42:23;;;;;;;12.18;1.05;;;;;;;17.12;55.60;102757.25;4912448;29;20122;-76